Time;durP1;ratioP1;P1;durP2;ratioP2;P2;SDS_P1;SDS_P2;PMS_P1;PMS_P2;Temp;Humidity;BMP_temperature;BMP_pressure;BME280_temperature;BME280_humidity;BME280_pressure;Samples;Min_cycle;Max_cycle;Signal;HPM_P1;HPM_P2
2021/09/06 00:01:02;;;;;;;5.80;3.00;;;;;;;3.82;75.79;99930.62;111132;1201;73903;-22
2021/09/06 00:03:30;;;;;;;4.70;2.60;;;;;;;3.58;76.43;99928.64;111195;1201;74549;-22
2021/09/06 00:05:59;;;;;;;6.50;1.60;;;;;;;3.35;77.11;99928.45;111211;1201;74207;-22
2021/09/06 00:08:28;;;;;;;5.40;2.00;;;;;;;3.72;77.49;99928.59;111183;1201;60871;-22
2021/09/06 00:11:09;;;;;;;3.60;2.20;;;;;;;4.37;75.55;99929.98;111146;1201;61842;-23
2021/09/06 00:13:57;;;;;;;5.10;2.20;;;;;;;4.44;75.73;99934.30;111106;1197;76233;-23
2021/09/06 00:16:28;;;;;;;4.50;2.40;;;;;;;4.25;76.10;99931.84;111188;1201;75608;-24
2021/09/06 00:18:58;;;;;;;9.00;3.20;;;;;;;4.00;76.41;99933.19;111172;1201;74136;-24
2021/09/06 00:21:26;;;;;;;7.30;2.90;;;;;;;3.72;77.33;99934.80;111154;1201;60794;-24
2021/09/06 00:24:00;;;;;;;5.00;2.40;;;;;;;3.40;78.18;99930.49;111195;1202;60857;-23
2021/09/06 00:26:28;;;;;;;4.70;1.60;;;;;;;3.20;78.37;99932.29;111148;1201;73880;-23
2021/09/06 00:28:58;;;;;;;5.20;2.70;;;;;;;3.61;78.14;99930.55;111126;1202;75648;-23
2021/09/06 00:31:27;;;;;;;6.30;2.80;;;;;;;4.23;76.35;99933.96;111174;1201;73844;-23
2021/09/06 00:34:08;;;;;;;3.50;1.80;;;;;;;4.26;75.49;99935.40;111136;1202;60877;-23
2021/09/06 00:36:36;;;;;;;6.00;2.50;;;;;;;4.03;75.51;99931.86;111161;1201;60868;-23
2021/09/06 00:39:09;;;;;;;6.20;3.00;;;;;;;3.76;77.21;99934.82;111147;1201;75170;-23
2021/09/06 00:41:39;;;;;;;4.70;2.30;;;;;;;3.54;77.50;99932.55;111193;1201;75502;-24
2021/09/06 00:44:08;;;;;;;5.70;3.10;;;;;;;3.30;77.67;99933.77;111180;1201;74043;-23
2021/09/06 00:46:36;;;;;;;4.60;1.70;;;;;;;3.12;79.06;99931.52;111158;1201;61487;-23
2021/09/06 00:49:15;;;;;;;7.40;2.60;;;;;;;3.61;79.52;99932.80;111152;1201;60871;-23
2021/09/06 00:51:44;;;;;;;5.40;3.00;;;;;;;4.26;77.65;99930.44;111165;1201;74120;-23
2021/09/06 00:54:13;;;;;;;11.50;2.50;;;;;;;4.34;76.39;99930.80;111134;1201;75342;-23
2021/09/06 00:56:43;;;;;;;4.10;2.40;;;;;;;4.15;75.95;99929.84;111127;1202;73096;-23
2021/09/06 00:59:18;;;;;;;5.40;2.80;;;;;;;3.89;76.42;99927.76;111131;1202;60821;-21
2021/09/06 01:01:46;;;;;;;9.10;3.20;;;;;;;3.66;77.67;99928.83;111188;1201;60813;-21
2021/09/06 01:04:15;;;;;;;7.30;3.20;;;;;;;3.43;78.25;99925.91;111208;1201;74303;-22
2021/09/06 01:07:25;;;;;;;4.90;1.80;;;;;;;3.32;78.05;99927.02;111160;1195;75575;-22
2021/09/06 01:10:40;;;;;;;;;;;;;;;4.34;76.20;99926.96;110753;1206;72608;-22
2021/09/06 01:13:36;;;;;;;6.00;3.20;;;;;;;4.81;74.36;99925.19;110622;1206;61049;-23
2021/09/06 01:16:24;;;;;;;3.30;1.70;;;;;;;4.61;72.63;99925.54;111017;1202;62776;-23
2021/09/06 01:18:57;;;;;;;4.40;2.20;;;;;;;4.17;73.25;99924.77;111138;1202;75171;-24
2021/09/06 01:21:27;;;;;;;5.00;2.90;;;;;;;3.77;74.76;99928.94;111190;1201;75709;-22
2021/09/06 01:24:22;;;;;;;7.00;3.20;;;;;;;3.44;75.64;99926.93;111200;1201;73187;-26
2021/09/06 01:26:50;;;;;;;6.20;3.10;;;;;;;3.20;76.87;99933.31;111145;1201;60862;-26
2021/09/06 01:29:21;;;;;;;5.80;2.30;;;;;;;2.99;77.35;99934.40;111145;1201;61707;-25
2021/09/06 01:31:50;;;;;;;7.30;2.90;;;;;;;3.44;78.12;99936.20;111191;1201;75100;-23
2021/09/06 01:34:19;;;;;;;6.00;3.20;;;;;;;4.02;76.89;99935.70;111163;1201;75840;-23
2021/09/06 01:36:50;;;;;;;4.00;2.00;;;;;;;4.13;75.05;99938.34;111149;1201;73312;-22
2021/09/06 01:39:18;;;;;;;4.40;2.30;;;;;;;3.95;74.66;99936.81;111194;1201;60820;-23
2021/09/06 01:41:47;;;;;;;31.20;7.30;;;;;;;3.68;75.02;99938.89;111151;1201;60963;-23
2021/09/06 01:44:16;;;;;;;10.50;3.70;;;;;;;3.41;75.53;99936.48;111170;1201;75165;-23
2021/09/06 01:46:46;;;;;;;4.30;2.50;;;;;;;3.15;75.78;99938.97;111192;1202;75597;-23
2021/09/06 01:49:14;;;;;;;3.90;2.00;;;;;;;2.92;76.62;99940.64;111186;1202;72826;-23
2021/09/06 01:51:49;;;;;;;7.30;2.60;;;;;;;3.34;76.86;99941.52;111161;1202;60903;-23
2021/09/06 01:54:18;;;;;;;7.40;3.30;;;;;;;3.94;75.39;99940.47;111202;1201;60849;-22
2021/09/06 01:56:46;;;;;;;8.50;2.40;;;;;;;4.00;74.44;99939.54;111110;1201;73949;-23
2021/09/06 01:59:16;;;;;;;4.50;2.20;;;;;;;3.81;74.53;99936.52;111233;1201;75649;-23
2021/09/06 02:01:44;;;;;;;11.00;5.80;;;;;;;3.53;75.00;99936.35;111166;1201;73922;-23
2021/09/06 02:04:14;;;;;;;11.30;6.60;;;;;;;3.25;75.95;99938.61;111196;1201;60882;-23
2021/09/06 02:06:45;;;;;;;7.70;4.00;;;;;;;3.00;76.45;99940.20;111126;1201;61566;-23
2021/09/06 02:09:14;;;;;;;6.20;2.20;;;;;;;2.79;77.05;99939.73;111168;1202;75421;-23
2021/09/06 02:12:03;;;;;;;7.20;2.80;;;;;;;3.32;76.67;99940.42;111128;1201;77032;-23
2021/09/06 02:14:46;;;;;;;10.90;3.30;;;;;;;3.89;74.77;99944.08;111126;1202;72983;-23
2021/09/06 02:17:15;;;;;;;6.30;2.40;;;;;;;3.88;74.47;99944.99;111172;1201;61248;-23
2021/09/06 02:19:45;;;;;;;7.00;3.00;;;;;;;3.67;74.92;99944.95;111150;1202;60885;-23
2021/09/06 02:22:13;;;;;;;7.00;3.70;;;;;;;3.42;75.47;99945.02;111152;1202;74084;-22
2021/09/06 02:24:53;;;;;;;6.20;3.50;;;;;;;3.16;76.05;99948.90;111128;1203;75441;-22
2021/09/06 02:27:26;;;;;;;7.50;4.10;;;;;;;2.90;76.62;99946.52;111167;1203;74004;-22
2021/09/06 02:29:57;;;;;;;5.90;2.40;;;;;;;2.71;77.47;99950.13;111156;1203;61311;-22
2021/09/06 02:32:27;;;;;;;7.50;2.50;;;;;;;3.18;77.47;99947.44;111110;1203;60862;-22
2021/09/06 02:35:01;;;;;;;10.00;3.90;;;;;;;3.83;75.91;99948.43;111134;1203;75437;-22
2021/09/06 02:37:31;;;;;;;8.20;3.50;;;;;;;3.87;74.03;99949.67;111116;1202;75496;-22
2021/09/06 02:40:00;;;;;;;5.30;2.60;;;;;;;3.62;74.25;99949.11;111179;1197;72593;-22
2021/09/06 02:42:29;;;;;;;5.50;2.90;;;;;;;3.23;75.15;99953.42;111134;1202;60885;-23
2021/09/06 02:44:58;;;;;;;7.70;3.50;;;;;;;2.90;76.09;99952.89;111159;1203;60873;-23
2021/09/06 02:47:29;;;;;;;8.00;3.70;;;;;;;2.62;77.05;99952.14;111143;1203;74939;-23
2021/09/06 02:50:01;;;;;;;5.60;2.60;;;;;;;2.39;77.76;99955.13;111049;1198;74637;-23
2021/09/06 02:52:31;;;;;;;6.20;2.60;;;;;;;2.80;77.90;99955.27;111196;1203;73841;-23
2021/09/06 02:54:59;;;;;;;5.50;2.70;;;;;;;3.32;76.36;99953.62;111098;1199;60836;-23
2021/09/06 02:57:28;;;;;;;5.10;2.00;;;;;;;3.29;76.11;99953.41;111161;1202;61435;-23
2021/09/06 02:59:57;;;;;;;5.30;2.70;;;;;;;3.09;76.30;99958.58;111201;1195;75140;-23
2021/09/06 03:02:26;;;;;;;6.00;2.50;;;;;;;2.87;76.53;99965.34;111198;1203;74554;-23
2021/09/06 03:04:55;;;;;;;7.60;3.70;;;;;;;2.65;77.50;99965.08;111102;1203;73024;-23
2021/09/06 03:07:24;;;;;;;9.50;3.30;;;;;;;2.43;78.22;99968.20;111097;1204;60882;-23
2021/09/06 03:09:53;;;;;;;4.60;2.00;;;;;;;2.24;78.30;99969.66;111146;1202;61008;-23
2021/09/06 03:12:22;;;;;;;9.40;2.80;;;;;;;2.69;77.91;99970.59;111207;1203;75081;-23
2021/09/06 03:14:50;;;;;;;7.60;2.90;;;;;;;3.34;76.18;99970.73;111165;1203;74881;-23
2021/09/06 03:17:19;;;;;;;4.50;2.20;;;;;;;3.46;75.34;99971.50;111191;1203;73021;-23
2021/09/06 03:19:50;;;;;;;6.90;2.70;;;;;;;3.29;75.45;99971.91;111127;1201;60865;-23
2021/09/06 03:22:19;;;;;;;5.30;2.70;;;;;;;3.08;75.76;99975.78;111207;1201;60854;-23
2021/09/06 03:24:47;;;;;;;7.20;3.20;;;;;;;2.83;76.66;99979.39;111162;1201;75137;-23
2021/09/06 03:27:16;;;;;;;6.40;3.10;;;;;;;2.59;77.51;99982.41;111158;1196;74407;-23
2021/09/06 03:29:44;;;;;;;3.70;1.80;;;;;;;2.39;77.09;99983.08;111191;1201;73114;-23
2021/09/06 03:32:13;;;;;;;5.40;2.30;;;;;;;2.80;76.63;99985.66;111102;1202;61291;-23
2021/09/06 03:34:42;;;;;;;5.60;2.50;;;;;;;3.41;75.12;99985.58;111181;1201;60967;-23
2021/09/06 03:37:10;;;;;;;6.80;2.90;;;;;;;3.52;74.80;99979.85;111186;1201;74106;-23
2021/09/06 03:39:39;;;;;;;5.80;2.40;;;;;;;3.36;74.82;99976.48;111179;1201;75672;-23
2021/09/06 03:42:09;;;;;;;7.10;2.70;;;;;;;3.07;75.76;99976.15;111193;1202;73283;-23
2021/09/06 03:44:41;;;;;;;8.10;2.50;;;;;;;2.74;76.45;99979.34;111150;1201;61456;-23
2021/09/06 03:47:10;;;;;;;6.90;2.80;;;;;;;2.46;77.79;99983.02;111206;1201;60841;-24
2021/09/06 03:49:39;;;;;;;4.10;1.90;;;;;;;2.28;78.18;99982.21;111220;1202;75156;-24
2021/09/06 03:52:08;;;;;;;7.40;2.20;;;;;;;2.75;77.48;99982.92;111189;1201;74737;-24
2021/09/06 03:54:36;;;;;;;6.50;2.80;;;;;;;3.41;75.26;99983.52;111233;1202;73885;-23
2021/09/06 03:57:06;;;;;;;3.70;1.90;;;;;;;3.47;74.37;99981.26;111206;1202;61593;-21
2021/09/06 03:59:35;;;;;;;3.50;1.90;;;;;;;3.28;74.54;99980.56;111144;1202;60961;-22
2021/09/06 04:02:06;;;;;;;3.40;2.00;;;;;;;3.07;74.98;99984.05;111168;1202;75275;-22
2021/09/06 04:04:36;;;;;;;3.30;1.70;;;;;;;2.91;75.56;99988.73;111198;1196;74759;-24
2021/09/06 04:07:05;;;;;;;5.20;2.20;;;;;;;2.79;76.04;99990.14;111116;1201;73856;-22
2021/09/06 04:09:38;;;;;;;4.70;2.40;;;;;;;2.73;76.03;99998.76;111163;1201;60867;-23
2021/09/06 04:12:06;;;;;;;2.90;1.40;;;;;;;2.70;76.53;100001.57;111160;1201;61390;-24
2021/09/06 04:14:35;;;;;;;5.60;2.10;;;;;;;3.41;76.18;99998.94;111153;1202;75086;-24
2021/09/06 04:17:04;;;;;;;5.00;2.30;;;;;;;4.34;74.17;99995.92;111214;1201;74424;-24
2021/09/06 04:19:55;;;;;;;7.40;1.90;;;;;;;4.75;72.91;99999.23;111129;1201;73262;-22
2021/09/06 04:22:23;;;;;;;4.70;2.40;;;;;;;4.87;72.28;99998.73;111176;1202;60822;-23
2021/09/06 04:24:52;;;;;;;8.90;2.90;;;;;;;4.84;72.29;100002.66;111212;1201;60989;-22
2021/09/06 04:27:22;;;;;;;4.60;2.40;;;;;;;4.78;72.31;99998.98;111221;1201;74174;-21
2021/09/06 04:29:50;;;;;;;14.90;2.90;;;;;;;4.78;72.46;99999.63;111150;1201;74734;-21
2021/09/06 04:32:18;;;;;;;6.70;2.60;;;;;;;4.81;73.45;100000.38;111191;1201;73035;-23
2021/09/06 04:34:47;;;;;;;4.70;1.80;;;;;;;4.86;74.11;100000.70;111109;1202;61443;-23
2021/09/06 04:37:15;;;;;;;4.20;2.20;;;;;;;5.61;73.57;100002.40;111156;1201;60970;-24
2021/09/06 04:39:45;;;;;;;7.20;2.60;;;;;;;6.45;70.77;100007.64;111207;1202;73785;-24
2021/09/06 04:42:15;;;;;;;4.40;2.50;;;;;;;6.66;69.98;100004.39;111190;1202;75493;-23
2021/09/06 04:44:44;;;;;;;5.20;2.90;;;;;;;6.65;70.03;100008.22;111213;1202;74016;-22
2021/09/06 04:47:14;;;;;;;43.70;4.20;;;;;;;6.58;70.08;100010.14;111215;1202;62217;-23
2021/09/06 04:49:43;;;;;;;7.40;3.30;;;;;;;6.51;70.46;100014.27;111164;1201;60860;-23
2021/09/06 04:52:28;;;;;;;5.20;2.70;;;;;;;6.37;71.09;100016.50;111188;1201;75245;-23
2021/09/06 04:54:57;;;;;;;18.40;3.90;;;;;;;6.29;71.31;100014.46;111179;1201;74553;-22
2021/09/06 04:57:27;;;;;;;13.50;2.70;;;;;;;6.25;72.03;100013.94;111185;1201;74061;-23
2021/09/06 04:59:56;;;;;;;8.90;3.20;;;;;;;6.76;72.47;100012.84;111147;1201;62034;-22
2021/09/06 05:02:25;;;;;;;34.30;6.10;;;;;;;7.55;69.90;100014.65;111211;1201;60819;-23
2021/09/06 05:04:54;;;;;;;14.50;4.70;;;;;;;7.88;68.92;100015.50;111159;1201;74203;-23
2021/09/06 05:07:23;;;;;;;26.00;4.70;;;;;;;7.95;68.78;100008.72;111184;1202;75621;-23
2021/09/06 05:09:51;;;;;;;24.50;5.00;;;;;;;7.92;68.68;100005.27;111101;1200;74037;-23
2021/09/06 05:12:21;;;;;;;10.50;4.10;;;;;;;7.87;69.23;100007.09;111126;1201;60868;-23
2021/09/06 05:15:09;;;;;;;12.40;4.30;;;;;;;7.82;70.33;100013.05;111144;1202;62145;-23
2021/09/06 05:17:38;;;;;;;11.30;4.20;;;;;;;7.79;70.37;100017.89;111197;1200;75594;-22
2021/09/06 05:20:07;;;;;;;9.10;4.00;;;;;;;7.93;70.21;100016.48;111158;1202;75603;-22
2021/09/06 05:22:36;;;;;;;7.50;3.30;;;;;;;8.04;70.37;100014.81;111137;1201;72638;-22
2021/09/06 05:25:06;;;;;;;6.00;3.20;;;;;;;8.68;69.89;100016.96;111184;1200;60945;-22
2021/09/06 05:27:35;;;;;;;6.70;3.70;;;;;;;9.46;68.31;100013.40;111095;1201;61454;-22
2021/09/06 05:30:16;;;;;;;6.40;4.20;;;;;;;9.69;67.09;100017.71;111174;1201;73773;-22
2021/09/06 05:32:44;;;;;;;11.70;5.20;;;;;;;9.61;67.23;100015.10;111168;1202;75422;-22
2021/09/06 05:35:13;;;;;;;9.20;5.50;;;;;;;9.52;67.65;100014.25;111183;1201;73119;-21
2021/09/06 05:37:43;;;;;;;6.60;5.40;;;;;;;9.40;68.42;100017.56;111172;1201;61185;-22
2021/09/06 05:40:12;;;;;;;10.20;7.00;;;;;;;9.26;69.17;100017.17;111147;1202;60887;-22
2021/09/06 05:42:41;;;;;;;10.00;5.80;;;;;;;9.22;69.89;100021.61;111158;1202;74027;-22
2021/09/06 05:45:10;;;;;;;7.20;5.20;;;;;;;9.25;69.24;100022.48;111136;1198;73546;-21
2021/09/06 05:47:41;;;;;;;5.80;3.70;;;;;;;9.33;69.46;100027.02;111148;1202;72002;-22
2021/09/06 05:50:18;;;;;;;29.60;5.80;;;;;;;10.09;68.42;100023.73;111127;1201;61435;-22
2021/09/06 05:53:07;;;;;;;16.90;5.60;;;;;;;10.99;65.60;100024.67;111196;1201;60838;-21
2021/09/06 05:55:36;;;;;;;9.40;5.20;;;;;;;11.28;64.38;100025.11;111169;1200;74901;-22
2021/09/06 05:58:05;;;;;;;7.20;4.70;;;;;;;11.32;63.52;100024.30;111208;1201;77145;-22
2021/09/06 06:00:34;;;;;;;7.90;5.40;;;;;;;11.07;64.57;100021.67;111148;1195;74477;-23
2021/09/06 06:03:03;;;;;;;8.80;5.00;;;;;;;10.73;66.49;100021.19;111153;1200;61923;-24
2021/09/06 06:05:33;;;;;;;12.40;4.90;;;;;;;10.67;66.87;100019.31;111162;1205;60855;-24
2021/09/06 06:08:03;;;;;;;9.30;5.10;;;;;;;10.62;66.46;100021.20;111180;1202;75845;-23
2021/09/06 06:10:31;;;;;;;11.00;4.40;;;;;;;10.63;66.22;100024.12;111217;1201;74726;-23
2021/09/06 06:13:00;;;;;;;10.90;5.10;;;;;;;10.61;66.83;100025.77;111147;1201;73121;-24
2021/09/06 06:15:28;;;;;;;6.20;2.60;;;;;;;10.66;67.05;100025.95;111144;1202;62131;-22
2021/09/06 06:17:57;;;;;;;7.20;3.40;;;;;;;11.28;65.79;100023.73;111167;1202;61060;-22
2021/09/06 06:20:26;;;;;;;9.70;4.10;;;;;;;12.05;64.39;100022.02;111170;1201;74183;-22
2021/09/06 06:23:27;;;;;;;6.10;4.00;;;;;;;12.32;62.67;100024.97;111044;1202;74780;-22
2021/09/06 06:26:09;;;;;;;8.40;4.20;;;;;;;12.21;62.57;100020.05;111180;1201;71814;-23
2021/09/06 06:28:42;;;;;;;8.60;4.60;;;;;;;12.02;63.54;100024.88;111175;1202;60973;-22
2021/09/06 06:31:13;;;;;;;7.20;4.10;;;;;;;11.97;63.99;100025.92;111185;1202;60871;-24
2021/09/06 06:33:41;;;;;;;27.90;4.70;;;;;;;11.92;63.45;100027.16;111154;1195;75034;-22
2021/09/06 06:36:14;;;;;;;9.00;4.00;;;;;;;11.90;63.78;100025.00;111149;1201;75564;-22
2021/09/06 06:38:48;;;;;;;7.50;4.00;;;;;;;11.89;63.18;100025.58;111181;1201;73722;-22
2021/09/06 06:41:17;;;;;;;9.00;3.90;;;;;;;11.86;62.75;100028.56;111139;1203;60874;-22
2021/09/06 06:44:01;;;;;;;7.00;3.50;;;;;;;11.99;63.00;100028.39;111143;1201;60871;-24
2021/09/06 06:46:30;;;;;;;7.10;3.90;;;;;;;12.11;62.68;100028.05;111256;1201;75020;-23
2021/09/06 06:48:59;;;;;;;6.80;3.80;;;;;;;12.22;62.50;100027.41;111121;1202;74711;-23
2021/09/06 06:51:34;;;;;;;6.30;4.00;;;;;;;12.32;61.49;100030.56;111143;1195;73905;-23
2021/09/06 06:54:03;;;;;;;7.60;3.70;;;;;;;12.39;61.49;100030.42;111201;1200;60868;-23
2021/09/06 06:56:36;;;;;;;5.60;3.50;;;;;;;12.61;60.68;100030.16;111177;1202;60784;-23
2021/09/06 06:59:12;;;;;;;6.10;2.60;;;;;;;12.75;59.88;100032.11;111120;1202;74985;-21
2021/09/06 07:01:41;;;;;;;4.40;2.10;;;;;;;12.83;59.00;100037.05;111157;1202;74622;-22
2021/09/06 07:04:10;;;;;;;4.30;2.40;;;;;;;12.90;57.72;100036.01;111177;1201;74067;-21
2021/09/06 07:06:42;;;;;;;5.50;2.90;;;;;;;13.07;58.34;100040.39;111177;1201;60871;-22
2021/09/06 07:09:10;;;;;;;4.70;2.30;;;;;;;13.30;57.93;100045.38;111178;1200;60844;-22
2021/09/06 07:11:39;;;;;;;2.30;1.70;;;;;;;13.54;57.51;100046.20;111206;1201;74954;-22
2021/09/06 07:14:08;;;;;;;2.90;1.70;;;;;;;13.71;56.16;100049.41;111139;1200;75401;-22
2021/09/06 07:16:36;;;;;;;4.80;2.20;;;;;;;13.66;56.29;100047.16;111139;1202;73937;-23
2021/09/06 07:19:07;;;;;;;4.70;2.00;;;;;;;13.76;56.75;100044.65;111147;1201;60890;-22
2021/09/06 07:21:36;;;;;;;4.30;2.10;;;;;;;13.76;56.19;100040.45;111186;1202;60923;-23
2021/09/06 07:24:05;;;;;;;6.20;2.60;;;;;;;13.71;56.39;100043.98;111158;1200;75140;-22
2021/09/06 07:26:34;;;;;;;3.40;1.60;;;;;;;13.70;54.90;100042.70;111137;1200;75585;-23
2021/09/06 07:29:02;;;;;;;4.30;1.90;;;;;;;13.78;55.17;100043.07;111211;1202;72879;-22
2021/09/06 07:31:34;;;;;;;3.10;1.60;;;;;;;13.92;54.69;100042.40;111153;1202;60856;-22
2021/09/06 07:34:05;;;;;;;3.70;1.30;;;;;;;14.09;54.54;100043.46;111109;1200;60932;-22
2021/09/06 07:36:35;;;;;;;4.80;1.50;;;;;;;14.25;53.93;100041.12;111191;1200;74234;-22
2021/09/06 07:39:04;;;;;;;2.30;1.50;;;;;;;14.40;54.66;100040.80;111181;1202;75887;-22
2021/09/06 07:41:35;;;;;;;4.00;1.50;;;;;;;14.62;53.78;100042.69;111191;1202;74196;-22
2021/09/06 07:44:04;;;;;;;8.10;1.80;;;;;;;14.76;52.88;100046.30;111187;1195;60913;-22
2021/09/06 07:46:33;;;;;;;2.30;1.30;;;;;;;14.80;51.53;100043.84;111180;1200;61711;-22
2021/09/06 07:49:02;;;;;;;1.80;1.00;;;;;;;14.92;49.62;100043.70;111170;1201;74969;-22
2021/09/06 07:51:31;;;;;;;4.50;1.30;;;;;;;15.08;47.92;100047.95;111191;1202;76030;-22
2021/09/06 07:54:01;;;;;;;1.90;1.10;;;;;;;15.09;46.12;100045.29;111152;1203;73955;-22
2021/09/06 07:56:30;;;;;;;1.40;0.80;;;;;;;15.20;47.87;100046.81;111201;1202;60938;-22
2021/09/06 07:58:59;;;;;;;4.60;0.90;;;;;;;15.33;46.55;100042.55;111164;1200;60883;-22
2021/09/06 08:01:27;;;;;;;1.60;0.90;;;;;;;15.51;46.55;100038.58;111182;1201;74993;-22
2021/09/06 08:03:57;;;;;;;1.50;1.00;;;;;;;15.61;45.65;100045.23;111183;1201;75342;-21
2021/09/06 08:06:25;;;;;;;2.70;1.30;;;;;;;15.67;45.44;100045.42;111132;1200;72986;-22
2021/09/06 08:08:55;;;;;;;4.50;1.00;;;;;;;15.73;44.35;100048.44;111195;1195;60752;-21
2021/09/06 08:11:24;;;;;;;1.50;0.90;;;;;;;15.79;44.98;100053.37;111184;1200;60951;-22
2021/09/06 08:13:57;;;;;;;2.00;1.00;;;;;;;15.81;45.37;100051.72;111162;1202;73866;-22
2021/09/06 08:16:25;;;;;;;1.70;1.10;;;;;;;15.99;45.92;100052.29;111175;1201;75990;-22
2021/09/06 08:18:55;;;;;;;2.40;0.90;;;;;;;15.83;44.39;100049.48;111144;1200;73961;-22
2021/09/06 08:21:23;;;;;;;118.90;7.40;;;;;;;15.88;44.36;100049.08;111198;1202;60944;-22
2021/09/06 08:23:52;;;;;;;1.20;0.80;;;;;;;16.28;45.70;100046.77;111153;1202;60810;-22
2021/09/06 08:26:25;;;;;;;8.70;1.00;;;;;;;16.42;44.57;100047.46;111194;1202;75383;-22
2021/09/06 08:28:54;;;;;;;1.20;0.80;;;;;;;16.57;44.43;100038.58;111160;1202;74128;-22
2021/09/06 08:31:24;;;;;;;1.10;0.60;;;;;;;16.56;43.30;100034.95;111242;1203;74189;-21
2021/09/06 08:33:53;;;;;;;1.50;0.90;;;;;;;16.40;44.35;100030.31;111161;1201;61435;-21
2021/09/06 08:36:21;;;;;;;1.60;0.80;;;;;;;16.38;43.96;100025.91;111161;1202;60830;-22
2021/09/06 08:38:49;;;;;;;1.30;0.90;;;;;;;16.16;42.88;100028.21;111169;1201;75197;-22
2021/09/06 08:41:18;;;;;;;2.70;0.80;;;;;;;16.36;42.18;100024.34;111200;1202;74563;-22
2021/09/06 08:43:47;;;;;;;1.40;0.80;;;;;;;16.59;42.68;100028.80;111171;1203;74221;-22
2021/09/06 08:46:23;;;;;;;1.20;0.80;;;;;;;16.49;42.68;100027.41;111137;1202;60991;-23
2021/09/06 08:48:53;;;;;;;1.20;0.60;;;;;;;16.70;41.85;100031.44;111149;1201;61437;-23
2021/09/06 08:51:22;;;;;;;1.20;0.80;;;;;;;16.97;41.60;100029.71;111167;1200;75198;-23
2021/09/06 08:53:51;;;;;;;73.70;4.20;;;;;;;17.21;41.66;100029.30;111196;1201;74533;-23
2021/09/06 08:56:21;;;;;;;1.10;0.70;;;;;;;17.41;41.20;100025.08;111198;1202;72304;-23
2021/09/06 09:01:14;;;;;;;3.00;0.80;;;;;;;17.97;42.00;100032.25;109859;1219;600687;-21
2021/09/06 09:03:56;;;;;;;1.70;0.80;;;;;;;18.33;38.92;100030.59;110941;1207;60858;-22
2021/09/06 09:07:09;;;;;;;1.10;0.70;;;;;;;18.23;38.29;100035.33;110852;1206;60858;-21
2021/09/06 09:10:04;;;;;;;1.40;0.80;;;;;;;18.34;38.85;100040.86;110752;1207;72697;-22
2021/09/06 09:13:03;;;;;;;2.40;0.80;;;;;;;18.20;39.24;100041.10;110935;1206;75605;-22
2021/09/06 09:16:11;;;;;;;1.10;0.60;;;;;;;18.49;38.95;100033.20;110696;1202;75708;-23
2021/09/06 09:19:05;;;;;;;0.80;0.70;;;;;;;18.71;37.43;100034.52;110965;1207;60814;-23
2021/09/06 09:21:56;;;;;;;1.70;0.80;;;;;;;18.75;37.65;100031.88;110585;1208;60863;-23
2021/09/06 09:24:37;;;;;;;1.80;0.90;;;;;;;18.74;36.32;100031.96;110948;1208;72729;-23
2021/09/06 09:27:34;;;;;;;1.20;0.70;;;;;;;19.30;37.00;100034.33;110644;1207;74743;-22
2021/09/06 09:30:24;;;;;;;0.90;0.80;;;;;;;19.61;35.46;100025.46;110688;1208;74116;-23
2021/09/06 09:33:13;;;;;;;1.00;0.60;;;;;;;19.68;33.72;100027.23;110674;1203;60942;-22
2021/09/06 09:36:05;;;;;;;1.50;0.80;;;;;;;18.62;35.05;100028.58;110913;1207;60872;-22
2021/09/06 09:38:35;;;;;;;1.50;0.70;;;;;;;18.02;36.73;100032.84;110965;1207;73419;-21
2021/09/06 09:41:14;;;;;;;2.20;0.70;;;;;;;17.93;36.68;100032.25;110731;1208;74563;-23
2021/09/06 09:43:43;;;;;;;1.10;0.80;;;;;;;18.03;35.85;100032.96;110734;1202;74073;-22
2021/09/06 09:46:19;;;;;;;0.70;0.70;;;;;;;18.00;35.90;100028.98;110993;1206;62074;-23
2021/09/06 09:48:54;;;;;;;1.00;0.60;;;;;;;18.13;35.19;100028.80;110984;1207;61451;-22
2021/09/06 09:51:25;;;;;;;2.00;0.90;;;;;;;18.55;34.96;100019.56;110761;1208;74157;-21
2021/09/06 09:53:54;;;;;;;1.20;0.70;;;;;;;18.95;33.18;100022.13;110909;1208;74885;-22
2021/09/06 09:56:23;;;;;;;0.90;0.60;;;;;;;19.13;31.80;100022.63;110906;1207;73115;-22
2021/09/06 09:58:52;;;;;;;1.10;0.60;;;;;;;19.23;32.18;100020.92;110988;1208;60835;-22
2021/09/06 10:01:20;;;;;;;1.00;0.60;;;;;;;18.91;32.84;100024.46;110881;1206;61528;-22
2021/09/06 10:03:52;;;;;;;1.90;0.60;;;;;;;18.67;33.22;100024.95;111007;1208;74470;-21
2021/09/06 10:06:21;;;;;;;1.90;0.60;;;;;;;18.03;35.92;100024.27;111010;1206;75364;-21
2021/09/06 10:08:55;;;;;;;1.60;0.90;;;;;;;17.68;38.11;100024.82;110683;1207;74232;-22
2021/09/06 10:11:39;;;;;;;2.10;0.80;;;;;;;17.78;39.98;100022.86;110906;1206;60897;-21
2021/09/06 10:14:28;;;;;;;2.10;0.90;;;;;;;17.84;37.40;100022.38;110874;1207;62875;-21
2021/09/06 10:17:01;;;;;;;2.30;1.10;;;;;;;17.32;37.00;100019.50;111046;1206;72716;-22
2021/09/06 10:19:42;;;;;;;2.70;1.20;;;;;;;17.72;38.37;100022.84;110701;1208;75412;-21
2021/09/06 10:22:27;;;;;;;1.60;1.00;;;;;;;17.97;37.06;100024.02;110971;1207;73931;-21
2021/09/06 10:24:57;;;;;;;5.00;1.20;;;;;;;17.89;37.73;100022.31;110866;1208;61766;-21
2021/09/06 10:27:27;;;;;;;2.70;1.00;;;;;;;17.92;37.90;100023.42;110851;1206;61566;-22
2021/09/06 10:30:13;;;;;;;1.10;0.90;;;;;;;16.85;37.44;100019.23;110734;1208;73059;-22
2021/09/06 10:32:49;;;;;;;1.40;1.00;;;;;;;16.08;38.88;100022.64;110622;1206;74626;-21
2021/09/06 10:35:20;;;;;;;1.80;0.80;;;;;;;16.49;38.75;100020.59;110936;1198;72986;-23
2021/09/06 10:38:05;;;;;;;3.50;0.90;;;;;;;16.26;38.18;100022.55;111064;1202;60966;-22
2021/09/06 10:40:35;;;;;;;10.60;1.10;;;;;;;16.54;39.40;100021.50;111119;1203;61432;-21
2021/09/06 10:43:16;;;;;;;3.70;0.80;;;;;;;16.83;39.89;100017.99;111136;1202;74458;-22
2021/09/06 10:45:46;;;;;;;1.90;0.90;;;;;;;17.37;36.18;100017.56;111164;1200;76077;-21
2021/09/06 10:48:18;;;;;;;3.40;2.70;;;;;;;17.41;35.17;100014.90;111147;1202;74037;-22
2021/09/06 10:50:47;;;;;;;1.20;0.70;;;;;;;18.17;34.50;100005.25;111046;1198;61462;-22
2021/09/06 10:53:17;;;;;;;2.80;0.90;;;;;;;18.36;33.63;100007.90;111119;1202;61430;-21
2021/09/06 10:55:51;;;;;;;1.90;0.90;;;;;;;18.63;33.40;100008.25;111024;1202;74185;-21
2021/09/06 10:58:21;;;;;;;2.90;0.80;;;;;;;19.40;31.85;100005.48;111047;1202;75616;-22
2021/09/06 11:00:59;;;;;;;2.00;1.00;;;;;;;19.54;32.78;100002.79;111078;1202;72501;-24
2021/09/06 11:03:36;;;;;;;8.40;1.40;;;;;;;19.34;32.63;100002.18;111162;1203;62070;-22
2021/09/06 11:06:06;;;;;;;1.70;0.80;;;;;;;19.52;32.62;100003.84;111060;1202;60977;-21
2021/09/06 11:08:36;;;;;;;0.60;0.50;;;;;;;19.76;32.50;100000.17;111174;1202;73823;-23
2021/09/06 11:11:07;;;;;;;0.90;0.60;;;;;;;19.72;32.57;99996.96;111191;1203;72612;-25
2021/09/06 11:13:47;;;;;;;2.20;0.80;;;;;;;19.13;32.71;99999.02;111088;1202;73056;-21
2021/09/06 11:16:38;;;;;;;2.60;0.80;;;;;;;18.24;34.19;100000.16;111095;1202;60843;-20
2021/09/06 11:19:15;;;;;;;2.90;0.70;;;;;;;17.76;36.57;99997.69;111072;1203;60945;-24
2021/09/06 11:21:43;;;;;;;10.20;1.30;;;;;;;17.52;37.12;99996.21;111177;1203;71859;-20
2021/09/06 11:24:14;;;;;;;5.50;0.90;;;;;;;17.81;37.08;99991.45;111167;1203;75546;-24
2021/09/06 11:26:43;;;;;;;1.50;0.80;;;;;;;18.09;35.97;99991.43;111127;1203;73646;-24
2021/09/06 11:29:12;;;;;;;1.10;0.60;;;;;;;18.46;34.06;99990.96;111174;1202;60819;-23
2021/09/06 11:31:46;;;;;;;1.40;0.60;;;;;;;18.61;34.75;99991.19;111170;1196;60867;-24
2021/09/06 11:34:15;;;;;;;;;;;;;;;18.50;33.76;99993.56;111157;1198;73253;-24
2021/09/06 11:36:45;;;;;;;1.80;1.00;;;;;;;18.34;35.79;99995.14;111208;1202;75549;-25
2021/09/06 11:39:14;;;;;;;1.20;0.70;;;;;;;17.96;35.48;99991.27;111199;1202;73302;-22
2021/09/06 11:41:42;;;;;;;1.00;0.60;;;;;;;17.68;35.68;99990.81;111102;1200;60906;-22
2021/09/06 11:44:11;;;;;;;1.90;0.70;;;;;;;17.64;36.33;99984.64;111171;1205;61592;-23
2021/09/06 11:46:41;;;;;;;1.10;0.70;;;;;;;17.60;35.34;99985.52;111083;1204;73499;-22
2021/09/06 11:49:11;;;;;;;1.60;0.70;;;;;;;17.64;34.43;99983.92;111134;1200;75535;-22
2021/09/06 11:51:40;;;;;;;2.00;1.00;;;;;;;18.32;35.05;99977.92;111205;1202;73873;-25